sensor_id;sensor_type;location;lat;lon;timestamp;P1;durP1;ratioP1;P2;durP2;ratioP2
35243;SDS011;37916;52.160;21.066;2023-10-09T00:08:25;10.50;;;2.67;;
35243;SDS011;37916;52.160;21.066;2023-10-09T00:18:32;5.85;;;2.70;;
35243;SDS011;37916;52.160;21.066;2023-10-09T00:28:37;6.43;;;2.40;;
35243;SDS011;37916;52.160;21.066;2023-10-09T00:38:43;6.18;;;2.58;;
35243;SDS011;37916;52.160;21.066;2023-10-09T00:48:49;6.28;;;2.50;;
35243;SDS011;37916;52.160;21.066;2023-10-09T00:58:50;4.28;;;2.30;;
35243;SDS011;37916;52.160;21.066;2023-10-09T01:08:56;6.22;;;2.53;;
35243;SDS011;37916;52.160;21.066;2023-10-09T01:19:09;5.90;;;1.33;;
35243;SDS011;37916;52.160;21.066;2023-10-09T01:29:20;6.13;;;2.40;;
35243;SDS011;37916;52.160;21.066;2023-10-09T01:39:22;10.63;;;2.97;;
35243;SDS011;37916;52.160;21.066;2023-10-09T01:49:24;6.43;;;2.40;;
35243;SDS011;37916;52.160;21.066;2023-10-09T01:59:32;5.65;;;2.40;;
35243;SDS011;37916;52.160;21.066;2023-10-09T02:09:33;4.57;;;2.20;;
35243;SDS011;37916;52.160;21.066;2023-10-09T02:19:34;4.45;;;1.98;;
35243;SDS011;37916;52.160;21.066;2023-10-09T02:29:36;5.68;;;2.22;;
35243;SDS011;37916;52.160;21.066;2023-10-09T02:39:38;7.95;;;2.10;;
35243;SDS011;37916;52.160;21.066;2023-10-09T02:49:48;5.13;;;2.05;;
35243;SDS011;37916;52.160;21.066;2023-10-09T02:59:50;3.80;;;2.13;;
35243;SDS011;37916;52.160;21.066;2023-10-09T03:09:54;7.40;;;2.27;;
35243;SDS011;37916;52.160;21.066;2023-10-09T03:19:55;4.95;;;2.58;;
35243;SDS011;37916;52.160;21.066;2023-10-09T03:29:56;5.60;;;2.40;;
35243;SDS011;37916;52.160;21.066;2023-10-09T03:39:57;4.35;;;2.45;;
35243;SDS011;37916;52.160;21.066;2023-10-09T03:49:58;5.68;;;2.60;;
35243;SDS011;37916;52.160;21.066;2023-10-09T04:00:10;7.60;;;2.17;;
35243;SDS011;37916;52.160;21.066;2023-10-09T04:10:27;5.97;;;2.20;;
35243;SDS011;37916;52.160;21.066;2023-10-09T04:20:44;7.70;;;2.88;;
35243;SDS011;37916;52.160;21.066;2023-10-09T04:31:11;4.50;;;2.00;;
35243;SDS011;37916;52.160;21.066;2023-10-09T04:41:17;6.15;;;2.58;;
35243;SDS011;37916;52.160;21.066;2023-10-09T04:51:27;7.63;;;2.90;;
35243;SDS011;37916;52.160;21.066;2023-10-09T05:01:34;8.40;;;2.85;;
35243;SDS011;37916;52.160;21.066;2023-10-09T05:11:45;6.55;;;2.08;;
35243;SDS011;37916;52.160;21.066;2023-10-09T05:21:52;9.65;;;4.30;;
35243;SDS011;37916;52.160;21.066;2023-10-09T05:31:53;6.00;;;2.42;;
35243;SDS011;37916;52.160;21.066;2023-10-09T05:52:22;5.93;;;2.50;;
35243;SDS011;37916;52.160;21.066;2023-10-09T06:02:44;6.45;;;2.50;;
35243;SDS011;37916;52.160;21.066;2023-10-09T06:13:05;4.38;;;2.33;;
35243;SDS011;37916;52.160;21.066;2023-10-09T06:23:07;5.65;;;2.50;;
35243;SDS011;37916;52.160;21.066;2023-10-09T06:33:16;4.93;;;2.15;;
35243;SDS011;37916;52.160;21.066;2023-10-09T06:43:29;5.85;;;2.55;;
35243;SDS011;37916;52.160;21.066;2023-10-09T06:53:31;8.32;;;3.40;;
35243;SDS011;37916;52.160;21.066;2023-10-09T07:03:51;6.93;;;2.67;;
35243;SDS011;37916;52.160;21.066;2023-10-09T07:13:52;7.22;;;3.13;;
35243;SDS011;37916;52.160;21.066;2023-10-09T07:23:55;8.02;;;2.80;;
35243;SDS011;37916;52.160;21.066;2023-10-09T07:34:04;9.50;;;3.00;;
35243;SDS011;37916;52.160;21.066;2023-10-09T07:44:25;6.45;;;3.20;;
35243;SDS011;37916;52.160;21.066;2023-10-09T07:54:38;4.00;;;2.25;;
35243;SDS011;37916;52.160;21.066;2023-10-09T08:04:49;7.55;;;2.78;;
35243;SDS011;37916;52.160;21.066;2023-10-09T08:14:56;8.60;;;2.60;;
35243;SDS011;37916;52.160;21.066;2023-10-09T08:25:12;8.23;;;2.55;;
35243;SDS011;37916;52.160;21.066;2023-10-09T08:35:26;3.63;;;1.92;;
35243;SDS011;37916;52.160;21.066;2023-10-09T08:45:31;5.25;;;2.05;;
35243;SDS011;37916;52.160;21.066;2023-10-09T08:55:32;5.72;;;1.73;;
35243;SDS011;37916;52.160;21.066;2023-10-09T09:05:38;6.50;;;2.97;;
35243;SDS011;37916;52.160;21.066;2023-10-09T09:15:39;4.38;;;1.98;;
35243;SDS011;37916;52.160;21.066;2023-10-09T09:25:54;4.78;;;1.52;;
35243;SDS011;37916;52.160;21.066;2023-10-09T09:36:11;4.65;;;1.38;;
35243;SDS011;37916;52.160;21.066;2023-10-09T09:46:12;5.03;;;1.60;;
35243;SDS011;37916;52.160;21.066;2023-10-09T09:56:18;4.47;;;1.50;;
35243;SDS011;37916;52.160;21.066;2023-10-09T10:06:28;5.25;;;1.40;;
35243;SDS011;37916;52.160;21.066;2023-10-09T10:16:32;5.75;;;1.58;;
35243;SDS011;37916;52.160;21.066;2023-10-09T10:26:36;2.95;;;1.10;;
35243;SDS011;37916;52.160;21.066;2023-10-09T10:36:37;2.95;;;1.20;;
35243;SDS011;37916;52.160;21.066;2023-10-09T10:46:44;2.88;;;1.10;;
35243;SDS011;37916;52.160;21.066;2023-10-09T10:56:51;3.22;;;1.20;;
35243;SDS011;37916;52.160;21.066;2023-10-09T11:06:53;7.68;;;2.13;;
35243;SDS011;37916;52.160;21.066;2023-10-09T11:17:17;3.22;;;1.40;;
35243;SDS011;37916;52.160;21.066;2023-10-09T11:27:25;3.83;;;1.40;;
35243;SDS011;37916;52.160;21.066;2023-10-09T11:37:32;3.45;;;1.60;;
35243;SDS011;37916;52.160;21.066;2023-10-09T11:47:39;4.85;;;1.75;;
35243;SDS011;37916;52.160;21.066;2023-10-09T11:57:54;3.70;;;1.85;;
35243;SDS011;37916;52.160;21.066;2023-10-09T12:07:58;3.75;;;1.95;;
35243;SDS011;37916;52.160;21.066;2023-10-09T12:18:01;4.75;;;1.95;;
35243;SDS011;37916;52.160;21.066;2023-10-09T12:28:02;5.28;;;2.22;;
35243;SDS011;37916;52.160;21.066;2023-10-09T12:38:04;5.35;;;2.13;;
35243;SDS011;37916;52.160;21.066;2023-10-09T12:48:09;4.40;;;1.85;;
35243;SDS011;37916;52.160;21.066;2023-10-09T12:58:11;6.35;;;2.55;;
35243;SDS011;37916;52.160;21.066;2023-10-09T13:08:15;6.93;;;2.65;;
35243;SDS011;37916;52.160;21.066;2023-10-09T13:18:20;5.40;;;2.42;;
35243;SDS011;37916;52.160;21.066;2023-10-09T13:28:21;4.38;;;2.30;;
35243;SDS011;37916;52.160;21.066;2023-10-09T13:38:31;4.22;;;2.13;;
35243;SDS011;37916;52.160;21.066;2023-10-09T13:48:33;7.45;;;2.38;;
35243;SDS011;37916;52.160;21.066;2023-10-09T13:58:38;5.15;;;2.70;;
35243;SDS011;37916;52.160;21.066;2023-10-09T14:08:41;4.95;;;1.98;;
35243;SDS011;37916;52.160;21.066;2023-10-09T14:18:44;3.92;;;2.10;;
35243;SDS011;37916;52.160;21.066;2023-10-09T14:28:45;5.97;;;2.28;;
35243;SDS011;37916;52.160;21.066;2023-10-09T14:38:46;6.07;;;2.83;;
35243;SDS011;37916;52.160;21.066;2023-10-09T14:48:49;5.07;;;2.60;;
35243;SDS011;37916;52.160;21.066;2023-10-09T14:58:50;5.13;;;2.25;;
35243;SDS011;37916;52.160;21.066;2023-10-09T15:08:51;4.53;;;2.60;;
35243;SDS011;37916;52.160;21.066;2023-10-09T15:18:55;5.95;;;2.63;;
35243;SDS011;37916;52.160;21.066;2023-10-09T15:28:59;6.00;;;2.55;;
35243;SDS011;37916;52.160;21.066;2023-10-09T15:39:00;7.03;;;3.10;;
35243;SDS011;37916;52.160;21.066;2023-10-09T15:49:03;6.97;;;3.33;;
35243;SDS011;37916;52.160;21.066;2023-10-09T15:59:06;8.27;;;3.70;;
35243;SDS011;37916;52.160;21.066;2023-10-09T16:09:07;9.32;;;4.05;;
35243;SDS011;37916;52.160;21.066;2023-10-09T16:19:11;9.53;;;4.40;;
35243;SDS011;37916;52.160;21.066;2023-10-09T16:29:12;10.45;;;4.70;;
35243;SDS011;37916;52.160;21.066;2023-10-09T16:39:15;9.63;;;4.07;;
35243;SDS011;37916;52.160;21.066;2023-10-09T16:49:22;9.93;;;4.13;;
35243;SDS011;37916;52.160;21.066;2023-10-09T16:59:25;9.02;;;4.75;;
35243;SDS011;37916;52.160;21.066;2023-10-09T17:09:26;8.43;;;4.28;;
35243;SDS011;37916;52.160;21.066;2023-10-09T17:19:27;13.35;;;5.95;;
35243;SDS011;37916;52.160;21.066;2023-10-09T17:29:28;11.40;;;5.43;;
35243;SDS011;37916;52.160;21.066;2023-10-09T17:39:29;13.43;;;6.55;;
35243;SDS011;37916;52.160;21.066;2023-10-09T17:49:30;13.05;;;6.90;;
35243;SDS011;37916;52.160;21.066;2023-10-09T17:59:31;10.88;;;6.38;;
35243;SDS011;37916;52.160;21.066;2023-10-09T18:09:33;14.25;;;7.28;;
35243;SDS011;37916;52.160;21.066;2023-10-09T18:19:34;13.88;;;6.60;;
35243;SDS011;37916;52.160;21.066;2023-10-09T18:29:38;17.27;;;7.57;;
35243;SDS011;37916;52.160;21.066;2023-10-09T18:39:42;15.75;;;7.72;;
35243;SDS011;37916;52.160;21.066;2023-10-09T18:49:43;12.52;;;7.10;;
35243;SDS011;37916;52.160;21.066;2023-10-09T18:59:44;15.48;;;8.63;;
35243;SDS011;37916;52.160;21.066;2023-10-09T19:09:45;15.40;;;8.48;;
35243;SDS011;37916;52.160;21.066;2023-10-09T19:19:46;16.73;;;8.43;;
35243;SDS011;37916;52.160;21.066;2023-10-09T19:29:47;15.43;;;8.07;;
35243;SDS011;37916;52.160;21.066;2023-10-09T19:39:48;17.52;;;8.43;;
35243;SDS011;37916;52.160;21.066;2023-10-09T19:49:49;17.08;;;9.38;;
35243;SDS011;37916;52.160;21.066;2023-10-09T19:59:52;22.45;;;9.88;;
35243;SDS011;37916;52.160;21.066;2023-10-09T20:09:55;23.20;;;10.50;;
35243;SDS011;37916;52.160;21.066;2023-10-09T20:19:58;19.95;;;10.65;;
35243;SDS011;37916;52.160;21.066;2023-10-09T20:29:59;19.02;;;9.57;;
35243;SDS011;37916;52.160;21.066;2023-10-09T20:40:04;21.15;;;12.25;;
35243;SDS011;37916;52.160;21.066;2023-10-09T20:50:05;16.98;;;11.60;;
35243;SDS011;37916;52.160;21.066;2023-10-09T21:00:07;22.27;;;12.70;;
35243;SDS011;37916;52.160;21.066;2023-10-09T21:10:19;17.90;;;11.25;;
35243;SDS011;37916;52.160;21.066;2023-10-09T21:20:20;20.17;;;12.60;;
35243;SDS011;37916;52.160;21.066;2023-10-09T21:30:25;18.33;;;11.85;;
35243;SDS011;37916;52.160;21.066;2023-10-09T21:40:27;19.30;;;11.70;;
35243;SDS011;37916;52.160;21.066;2023-10-09T21:50:29;23.23;;;12.77;;
35243;SDS011;37916;52.160;21.066;2023-10-09T22:00:30;28.05;;;12.48;;
35243;SDS011;37916;52.160;21.066;2023-10-09T22:10:34;22.70;;;12.57;;
35243;SDS011;37916;52.160;21.066;2023-10-09T22:20:35;18.50;;;10.77;;
35243;SDS011;37916;52.160;21.066;2023-10-09T22:30:36;20.10;;;11.23;;
35243;SDS011;37916;52.160;21.066;2023-10-09T22:40:37;19.00;;;11.85;;
35243;SDS011;37916;52.160;21.066;2023-10-09T22:50:41;16.98;;;10.50;;
35243;SDS011;37916;52.160;21.066;2023-10-09T23:00:45;17.23;;;10.43;;
35243;SDS011;37916;52.160;21.066;2023-10-09T23:10:49;19.13;;;10.97;;
35243;SDS011;37916;52.160;21.066;2023-10-09T23:20:53;20.30;;;11.90;;
35243;SDS011;37916;52.160;21.066;2023-10-09T23:31:12;18.33;;;10.90;;
35243;SDS011;37916;52.160;21.066;2023-10-09T23:41:26;21.20;;;12.23;;
35243;SDS011;37916;52.160;21.066;2023-10-09T23:51:27;18.02;;;11.20;;
